Time;durP1;ratioP1;P1;durP2;ratioP2;P2;SDS_P1;SDS_P2;PMS_P1;PMS_P2;Temp;Humidity;BMP_temperature;BMP_pressure;BME280_temperature;BME280_humidity;BME280_pressure;Samples;Min_cycle;Max_cycle;Signal;HPM_P1;HPM_P2
2022/11/24 00:01:42;;;;;;;;;;;0.60;99.90;;;;;;2622464;46;19938;31
2022/11/24 00:04:19;;;;;;;;;;;0.60;99.90;;;;;;2603926;54;20771;31
2022/11/24 00:06:54;;;;;;;;;;;0.60;99.90;;;;;;2604443;54;19934;31
2022/11/24 00:09:33;;;;;;;;;;;0.60;99.90;;;;;;2622752;46;20801;31
2022/11/24 00:12:08;;;;;;;;;;;0.60;99.90;;;;;;2604055;54;20791;31
2022/11/24 00:14:45;;;;;;;;;;;0.60;99.90;;;;;;2604276;54;20742;31
2022/11/24 00:17:21;;;;;;;;;;;0.60;99.90;;;;;;2603995;54;19950;31
2022/11/24 00:19:58;;;;;;;;;;;0.60;99.90;;;;;;2604153;54;19934;31
2022/11/24 00:22:36;;;;;;;;;;;0.60;99.90;;;;;;2614128;46;19986;31
2022/11/24 00:25:10;;;;;;;;;;;0.60;99.90;;;;;;2603938;54;19935;31
2022/11/24 00:27:44;;;;;;;;;;;0.70;99.90;;;;;;2604362;54;20737;31
2022/11/24 00:30:18;;;;;;;;;;;0.70;99.90;;;;;;2605081;46;20487;31
2022/11/24 00:32:54;;;;;;;;;;;0.70;99.90;;;;;;2604270;54;20702;31
2022/11/24 00:35:31;;;;;;;;;;;0.70;99.90;;;;;;2702705;39;20455;31
2022/11/24 00:38:06;;;;;;;;;;;0.70;99.90;;;;;;2604907;46;19990;31
2022/11/24 00:40:39;;;;;;;;;;;0.70;99.90;;;;;;2603826;54;20795;31
2022/11/24 00:43:14;;;;;;;;;;;0.70;99.90;;;;;;2622419;46;19980;31
2022/11/24 00:45:46;;;;;;;;;;;0.70;99.90;;;;;;2604125;54;19938;31
2022/11/24 00:48:21;;;;;;;;;;;0.70;99.90;;;;;;2604149;54;19939;31
2022/11/24 00:51:01;;;;;;;;;;;0.70;99.90;;;;;;2603908;54;19986;31
2022/11/24 00:53:36;;;;;;;;;;;0.70;99.90;;;;;;2603901;54;20760;31
2022/11/24 00:56:10;;;;;;;;;;;0.70;99.90;;;;;;2604017;54;19960;31
2022/11/24 00:58:44;;;;;;;;;;;0.70;99.90;;;;;;2605091;46;20781;31
2022/11/24 01:01:20;;;;;;;;;;;0.70;99.90;;;;;;2607142;46;19957;31
2022/11/24 01:03:55;;;;;;;;;;;0.70;99.90;;;;;;2603982;54;19934;31
2022/11/24 01:06:34;;;;;;;;;;;0.70;99.90;;;;;;2604111;54;19942;31
2022/11/24 01:09:10;;;;;;;;;;;0.70;99.90;;;;;;2603868;54;20868;31
2022/11/24 01:14:39;;;;;;;;;;;0.70;99.90;;;;;;2603548;54;19959;31
2022/11/24 01:17:13;;;;;;;;;;;0.70;99.90;;;;;;2603825;54;19941;31
2022/11/24 01:19:48;;;;;;;;;;;0.70;99.90;;;;;;2604951;46;19941;31
2022/11/24 01:22:26;;;;;;;;;;;0.70;99.90;;;;;;2622288;46;19998;31
2022/11/24 01:25:00;;;;;;;;;;;0.70;99.90;;;;;;2603877;54;19935;31
2022/11/24 01:27:34;;;;;;;;;;;0.70;99.90;;;;;;2703190;39;20372;31
2022/11/24 01:30:08;;;;;;;;;;;0.70;99.90;;;;;;2604787;46;19954;31
2022/11/24 01:32:41;;;;;;;;;;;0.70;99.90;;;;;;2614029;46;20786;31
2022/11/24 01:35:15;;;;;;;;;;;0.80;99.90;;;;;;2707459;39;20392;31
2022/11/24 01:37:51;;;;;;;;;;;0.70;99.90;;;;;;2618114;46;20457;31
2022/11/24 01:40:26;;;;;;;;;;;0.70;99.90;;;;;;2702632;39;20472;31
2022/11/24 01:43:01;;;;;;;;;;;0.70;99.90;;;;;;2603894;54;20787;31
2022/11/24 01:45:39;;;;;;;;;;;0.70;99.90;;;;;;2622381;46;19989;31
2022/11/24 01:48:16;;;;;;;;;;;0.80;99.90;;;;;;2702367;39;20485;31
2022/11/24 01:50:54;;;;;;;;;;;0.70;99.90;;;;;;2604586;46;19946;31
2022/11/24 01:53:31;;;;;;;;;;;0.80;99.90;;;;;;2622395;46;20513;31
2022/11/24 01:56:05;;;;;;;;;;;0.80;99.90;;;;;;2603947;54;19946;31
2022/11/24 01:58:39;;;;;;;;;;;0.70;99.90;;;;;;2603909;54;19946;31
2022/11/24 02:01:13;;;;;;;;;;;0.80;99.90;;;;;;2603608;54;20544;31
2022/11/24 02:03:48;;;;;;;;;;;0.80;99.90;;;;;;2702291;39;20425;31
2022/11/24 02:06:22;;;;;;;;;;;0.70;99.90;;;;;;2622301;46;19935;31
2022/11/24 02:09:00;;;;;;;;;;;0.70;99.90;;;;;;2603619;54;20740;31
2022/11/24 02:11:35;;;;;;;;;;;0.70;99.90;;;;;;2603949;54;19935;31
2022/11/24 02:14:11;;;;;;;;;;;0.70;99.90;;;;;;2622087;46;19942;31
2022/11/24 02:16:46;;;;;;;;;;;0.70;99.90;;;;;;2721003;39;20404;31
2022/11/24 02:19:20;;;;;;;;;;;0.70;99.90;;;;;;2603857;54;19938;31
2022/11/24 02:21:55;;;;;;;;;;;0.70;99.90;;;;;;2603564;54;19934;31
2022/11/24 02:24:32;;;;;;;;;;;0.70;99.90;;;;;;2622200;46;19993;31
2022/11/24 02:27:10;;;;;;;;;;;0.70;99.90;;;;;;2792070;31;20501;31
2022/11/24 02:29:43;;;;;;;;;;;0.70;99.90;;;;;;2621915;46;19941;31
2022/11/24 02:32:19;;;;;;;;;;;0.70;99.90;;;;;;2603785;54;21272;31
2022/11/24 02:35:01;;;;;;;;;;;0.70;99.90;;;;;;2622119;46;20444;31
2022/11/24 02:37:35;;;;;;;;;;;0.70;99.90;;;;;;2603632;54;19935;31
2022/11/24 02:40:11;;;;;;;;;;;0.70;99.90;;;;;;2622132;46;20776;31
2022/11/24 02:42:49;;;;;;;;;;;0.70;99.90;;;;;;2622291;46;20466;31
2022/11/24 02:45:22;;;;;;;;;;;0.70;99.90;;;;;;2603493;54;19934;31
2022/11/24 02:47:54;;;;;;;;;;;0.70;99.90;;;;;;2720757;39;20455;31
2022/11/24 02:50:29;;;;;;;;;;;0.70;99.90;;;;;;2603104;54;20474;31
2022/11/24 02:53:03;;;;;;;;;;;0.70;99.90;;;;;;2702168;39;20439;31
2022/11/24 02:55:38;;;;;;;;;;;0.70;99.90;;;;;;2603338;54;19939;31
2022/11/24 02:58:16;;;;;;;;;;;0.70;99.90;;;;;;2603772;54;19951;31
2022/11/24 03:00:49;;;;;;;;;;;0.80;99.90;;;;;;2621992;46;19946;31
2022/11/24 03:03:23;;;;;;;;;;;0.70;99.90;;;;;;2622008;46;19934;31
2022/11/24 03:05:58;;;;;;;;;;;0.80;99.90;;;;;;2622230;46;20422;31
2022/11/24 03:08:33;;;;;;;;;;;0.80;99.90;;;;;;2603451;54;20005;31
2022/11/24 03:11:07;;;;;;;;;;;0.70;99.90;;;;;;2603624;54;20771;31
2022/11/24 03:13:44;;;;;;;;;;;0.80;99.90;;;;;;2603589;54;19935;31
2022/11/24 03:16:18;;;;;;;;;;;0.70;99.90;;;;;;2603627;54;19946;31
2022/11/24 03:18:52;;;;;;;;;;;0.70;99.90;;;;;;2603688;54;20697;31
2022/11/24 03:21:27;;;;;;;;;;;0.70;99.90;;;;;;2603281;54;19957;31
2022/11/24 03:24:02;;;;;;;;;;;0.70;99.90;;;;;;2603099;54;19998;31
2022/11/24 03:26:36;;;;;;;;;;;0.70;99.90;;;;;;2617845;46;19935;31
2022/11/24 03:29:13;;;;;;;;;;;0.70;99.90;;;;;;2604494;46;19942;31
2022/11/24 03:31:47;;;;;;;;;;;0.70;99.90;;;;;;2603480;54;20515;31
2022/11/24 03:34:20;;;;;;;;;;;0.70;99.90;;;;;;2604320;46;20795;31
2022/11/24 03:36:54;;;;;;;;;;;0.70;99.90;;;;;;2604347;46;20710;31
2022/11/24 03:39:28;;;;;;;;;;;0.70;99.90;;;;;;2604001;46;19942;31
2022/11/24 03:42:02;;;;;;;;;;;0.70;99.90;;;;;;2603417;54;19942;31
2022/11/24 03:44:38;;;;;;;;;;;0.70;99.90;;;;;;2702381;39;20881;31
2022/11/24 03:47:12;;;;;;;;;;;0.70;99.90;;;;;;2603353;54;20710;31
2022/11/24 03:49:47;;;;;;;;;;;0.70;99.90;;;;;;2613387;46;19946;31
2022/11/24 03:52:25;;;;;;;;;;;0.70;99.90;;;;;;2603395;54;19946;31
2022/11/24 03:54:59;;;;;;;;;;;0.70;99.90;;;;;;2603492;54;19934;31
2022/11/24 03:57:33;;;;;;;;;;;0.70;99.90;;;;;;2701795;39;20377;31
2022/11/24 04:00:12;;;;;;;;;;;0.70;99.90;;;;;;2622099;47;20772;31
2022/11/24 04:02:47;;;;;;;;;;;0.70;99.90;;;;;;2621768;47;19935;31
2022/11/24 04:05:24;;;;;;;;;;;0.70;99.90;;;;;;2603407;54;20709;31
2022/11/24 04:08:01;;;;;;;;;;;0.70;99.90;;;;;;2603231;54;20793;31
2022/11/24 04:10:36;;;;;;;;;;;0.70;99.90;;;;;;2621648;47;19942;31
2022/11/24 04:13:10;;;;;;;;;;;0.70;99.90;;;;;;2621692;47;19935;31
2022/11/24 04:15:47;;;;;;;;;;;0.80;99.90;;;;;;2621909;47;19935;31
2022/11/24 04:18:22;;;;;;;;;;;1.30;99.90;;;;;;2622026;47;19935;31
2022/11/24 04:20:56;;;;;;;;;;;0.80;99.90;;;;;;2621735;47;19941;31
2022/11/24 04:23:29;;;;;;;;;;;0.80;99.90;;;;;;2621848;47;19939;31
2022/11/24 04:26:03;;;;;;;;;;;0.80;99.90;;;;;;2603237;54;20710;31
2022/11/24 04:28:39;;;;;;;;;;;0.80;99.90;;;;;;2603465;54;19934;31
2022/11/24 04:31:16;;;;;;;;;;;0.80;99.90;;;;;;2621692;47;19935;31
2022/11/24 04:33:51;;;;;;;;;;;0.80;99.90;;;;;;2603179;54;19934;31
2022/11/24 04:36:24;;;;;;;;;;;0.80;99.90;;;;;;2603491;54;20748;31
2022/11/24 04:39:00;;;;;;;;;;;0.80;99.90;;;;;;2621470;47;19934;31
2022/11/24 04:41:54;;;;;;;;;;;0.80;99.90;;;;;;2603274;54;20746;31
2022/11/24 04:44:28;;;;;;;;;;;0.80;99.90;;;;;;2621991;47;19950;31
2022/11/24 04:47:05;;;;;;;;;;;0.80;99.90;;;;;;2604119;54;20824;31
2022/11/24 04:49:43;;;;;;;;;;;0.80;99.90;;;;;;2622498;46;20788;31
2022/11/24 04:52:18;;;;;;;;;;;0.80;99.90;;;;;;2604057;54;19942;31
2022/11/24 04:54:50;;;;;;;;;;;0.80;99.90;;;;;;2622262;46;19943;31
2022/11/24 04:57:26;;;;;;;;;;;0.80;99.90;;;;;;2604778;46;19956;31
2022/11/24 05:00:00;;;;;;;;;;;0.80;99.90;;;;;;2603120;54;19997;31
2022/11/24 05:02:37;;;;;;;;;;;0.80;99.90;;;;;;2604926;46;20788;31
2022/11/24 05:05:12;;;;;;;;;;;0.80;99.90;;;;;;2604042;54;19935;31
2022/11/24 05:07:45;;;;;;;;;;;0.80;99.90;;;;;;2603814;54;20641;31
2022/11/24 05:13:07;;;;;;;;;;;0.90;99.90;;;;;;2603720;54;20775;31
2022/11/24 05:15:41;;;;;;;;;;;0.90;99.90;;;;;;2603980;54;20063;31
2022/11/24 05:18:18;;;;;;;;;;;0.80;99.90;;;;;;2614304;46;19934;31
2022/11/24 05:20:52;;;;;;;;;;;0.90;99.90;;;;;;2702613;39;21406;31
2022/11/24 05:23:24;;;;;;;;;;;0.90;99.90;;;;;;2617765;46;19934;31
2022/11/24 05:26:00;;;;;;;;;;;0.80;99.90;;;;;;2604119;54;19945;31
2022/11/24 05:28:35;;;;;;;;;;;0.80;99.90;;;;;;2604105;54;19934;31
2022/11/24 05:31:09;;;;;;;;;;;0.80;99.90;;;;;;2603747;54;20682;31
2022/11/24 05:33:47;;;;;;;;;;;0.80;99.90;;;;;;2603621;54;20764;31
2022/11/24 05:39:06;;;;;;;;;;;0.80;99.90;;;;;;2603647;54;20001;31
2022/11/24 05:41:41;;;;;;;;;;;0.80;99.90;;;;;;2603671;54;20075;31
2022/11/24 05:44:17;;;;;;;;;;;0.80;99.90;;;;;;2603743;54;20494;31
2022/11/24 05:46:53;;;;;;;;;;;0.80;99.90;;;;;;2604957;46;20407;31
2022/11/24 05:49:29;;;;;;;;;;;0.80;99.90;;;;;;2603771;54;19960;31
2022/11/24 05:52:04;;;;;;;;;;;0.80;99.90;;;;;;2609254;46;19935;31
2022/11/24 05:54:39;;;;;;;;;;;0.80;99.90;;;;;;2622213;46;19943;31
2022/11/24 05:57:13;;;;;;;;;;;0.80;99.90;;;;;;2603487;54;20770;31
2022/11/24 05:59:46;;;;;;;;;;;0.80;99.90;;;;;;2603730;54;20686;31
2022/11/24 06:02:21;;;;;;;;;;;0.90;99.90;;;;;;2603987;54;19956;31
2022/11/24 06:04:59;;;;;;;;;;;0.90;99.90;;;;;;2609073;46;19935;31
2022/11/24 06:07:34;;;;;;;;;;;0.90;99.90;;;;;;2603681;54;19950;31
2022/11/24 06:10:09;;;;;;;;;;;0.90;99.90;;;;;;2616018;46;20001;31
2022/11/24 06:12:42;;;;;;;;;;;0.90;99.90;;;;;;2617220;46;19942;31
2022/11/24 06:15:19;;;;;;;;;;;0.90;99.90;;;;;;2603626;54;20705;31
2022/11/24 06:17:58;;;;;;;;;;;0.90;99.90;;;;;;2604055;54;20683;31
2022/11/24 06:20:35;;;;;;;;;;;0.90;99.90;;;;;;2622251;46;19935;31
2022/11/24 06:23:09;;;;;;;;;;;0.90;99.90;;;;;;2603873;54;20730;31
2022/11/24 06:25:43;;;;;;;;;;;0.90;99.90;;;;;;2604682;46;20036;31
2022/11/24 06:28:23;;;;;;;;;;;0.90;99.90;;;;;;2603766;54;19935;31
2022/11/24 06:30:57;;;;;;;;;;;1.00;99.90;;;;;;2603558;54;19941;31
2022/11/24 06:33:32;;;;;;;;;;;1.00;99.90;;;;;;2603443;54;19993;31
2022/11/24 06:36:10;;;;;;;;;;;1.00;99.90;;;;;;2603772;54;20753;31
2022/11/24 06:38:45;;;;;;;;;;;1.00;99.90;;;;;;2603875;54;19941;31
2022/11/24 06:41:20;;;;;;;;;;;1.00;99.90;;;;;;2622271;46;19956;31
2022/11/24 06:43:55;;;;;;;;;;;1.00;99.90;;;;;;2602722;54;19997;31
2022/11/24 06:46:33;;;;;;;;;;;1.00;99.90;;;;;;2603620;54;20734;31
2022/11/24 06:49:07;;;;;;;;;;;1.00;99.90;;;;;;2603741;54;20715;31
2022/11/24 06:51:45;;;;;;;;;;;1.10;99.90;;;;;;2603767;54;19941;31
2022/11/24 06:54:20;;;;;;;;;;;1.10;99.90;;;;;;2603799;54;19942;31
2022/11/24 06:56:57;;;;;;;;;;;1.10;99.90;;;;;;2603857;54;20029;31
2022/11/24 06:59:32;;;;;;;;;;;1.10;99.90;;;;;;2603398;54;19935;31
2022/11/24 07:02:07;;;;;;;;;;;1.10;99.90;;;;;;2622380;46;20710;31
2022/11/24 07:04:42;;;;;;;;;;;1.10;99.90;;;;;;2603504;54;20735;31
2022/11/24 07:07:19;;;;;;;;;;;1.10;99.90;;;;;;2603453;54;19935;31
2022/11/24 07:09:52;;;;;;;;;;;1.10;99.90;;;;;;2603351;54;19935;31
2022/11/24 07:12:28;;;;;;;;;;;1.10;99.90;;;;;;2621766;46;20751;31
2022/11/24 07:15:02;;;;;;;;;;;1.10;99.90;;;;;;2622040;46;19941;31
2022/11/24 07:17:37;;;;;;;;;;;1.10;99.90;;;;;;2702098;39;20386;31
2022/11/24 07:20:13;;;;;;;;;;;1.20;99.90;;;;;;2603271;54;20006;31
2022/11/24 07:22:51;;;;;;;;;;;1.20;99.90;;;;;;2603628;54;19935;31
2022/11/24 07:25:26;;;;;;;;;;;1.20;99.90;;;;;;2603385;54;20493;31
2022/11/24 07:27:59;;;;;;;;;;;1.20;99.90;;;;;;2603498;54;19942;31
2022/11/24 07:30:33;;;;;;;;;;;1.20;99.90;;;;;;2621806;46;19934;31
2022/11/24 07:33:09;;;;;;;;;;;1.20;99.90;;;;;;2603486;54;19991;31
2022/11/24 07:35:43;;;;;;;;;;;1.30;99.90;;;;;;2622178;46;19961;31
2022/11/24 07:38:18;;;;;;;;;;;1.30;99.90;;;;;;2773487;31;20489;31
2022/11/24 07:40:54;;;;;;;;;;;1.30;99.90;;;;;;2616651;46;20480;31
2022/11/24 07:43:29;;;;;;;;;;;1.30;99.90;;;;;;2603437;54;20808;31
2022/11/24 07:46:05;;;;;;;;;;;1.30;99.90;;;;;;2603303;54;20501;31
2022/11/24 07:48:39;;;;;;;;;;;1.40;99.90;;;;;;2603752;54;19946;31
2022/11/24 07:51:14;;;;;;;;;;;1.40;99.90;;;;;;2622060;46;19951;31
2022/11/24 07:53:50;;;;;;;;;;;1.40;99.90;;;;;;2603237;54;20013;31
2022/11/24 07:56:25;;;;;;;;;;;1.40;99.90;;;;;;2603426;54;20806;31
2022/11/24 07:58:59;;;;;;;;;;;1.50;99.90;;;;;;2603314;54;19935;31
2022/11/24 08:01:33;;;;;;;;;;;1.50;99.90;;;;;;2610550;47;19946;31
2022/11/24 08:04:08;;;;;;;;;;;1.50;99.90;;;;;;2603107;54;19941;31
2022/11/24 08:06:44;;;;;;;;;;;1.60;99.90;;;;;;2603409;54;19958;31
2022/11/24 08:09:23;;;;;;;;;;;1.60;99.90;;;;;;2603549;54;19939;31
2022/11/24 08:11:58;;;;;;;;;;;1.60;99.90;;;;;;2603534;54;20454;31
2022/11/24 08:14:32;;;;;;;;;;;1.60;99.90;;;;;;2621840;46;20457;31
2022/11/24 08:17:07;;;;;;;;;;;1.60;99.90;;;;;;2621412;47;19961;31
2022/11/24 08:19:41;;;;;;;;;;;1.70;99.90;;;;;;2622234;47;19942;31
2022/11/24 08:22:15;;;;;;;;;;;1.70;99.90;;;;;;2603957;54;20788;31
2022/11/24 08:24:52;;;;;;;;;;;1.70;99.90;;;;;;2604186;54;20007;31
2022/11/24 08:27:32;;;;;;;;;;;1.70;99.90;;;;;;2603896;54;19993;31
2022/11/24 08:30:07;;;;;;;;;;;1.80;99.90;;;;;;2604163;54;19961;31
2022/11/24 08:32:41;;;;;;;;;;;1.80;99.90;;;;;;2604081;54;20759;31
2022/11/24 08:35:16;;;;;;;;;;;1.80;99.90;;;;;;2604072;54;19942;31
2022/11/24 08:37:50;;;;;;;;;;;1.90;99.90;;;;;;2603878;54;19935;31
2022/11/24 08:40:29;;;;;;;;;;;1.90;99.90;;;;;;2622573;46;20820;31
2022/11/24 08:43:05;;;;;;;;;;;2.00;99.90;;;;;;2604354;54;19944;31
2022/11/24 08:45:39;;;;;;;;;;;2.00;99.90;;;;;;2603835;54;20119;31
2022/11/24 08:48:16;;;;;;;;;;;2.00;99.90;;;;;;2774172;31;20536;31
2022/11/24 08:50:50;;;;;;;;;;;2.10;99.90;;;;;;2604197;54;21420;31
2022/11/24 08:53:25;;;;;;;;;;;2.10;99.90;;;;;;2604095;54;21423;31
2022/11/24 08:56:04;;;;;;;;;;;2.20;99.90;;;;;;2604150;54;19942;31
2022/11/24 08:58:41;;;;;;;;;;;2.30;99.90;;;;;;2622560;46;20773;31
2022/11/24 09:01:16;;;;;;;;;;;2.30;99.90;;;;;;2604197;54;19993;31
2022/11/24 09:03:51;;;;;;;;;;;2.40;99.90;;;;;;2622328;46;19993;31
2022/11/24 09:06:25;;;;;;;;;;;2.40;99.90;;;;;;2702478;39;20564;31
2022/11/24 09:08:59;;;;;;;;;;;2.50;99.90;;;;;;2603603;54;20021;31
2022/11/24 09:11:37;;;;;;;;;;;2.50;99.90;;;;;;2604000;54;19935;31
2022/11/24 09:14:11;;;;;;;;;;;2.60;99.90;;;;;;2603980;54;20758;31
2022/11/24 09:16:49;;;;;;;;;;;2.60;99.90;;;;;;2702632;39;20374;31
2022/11/24 09:19:23;;;;;;;;;;;2.70;99.90;;;;;;2603720;54;19989;31
2022/11/24 09:21:57;;;;;;;;;;;2.70;99.90;;;;;;2603981;54;19996;31
2022/11/24 09:24:31;;;;;;;;;;;2.80;99.90;;;;;;2603638;54;20025;31
2022/11/24 09:27:08;;;;;;;;;;;2.90;99.90;;;;;;2603739;54;20723;31
2022/11/24 09:29:43;;;;;;;;;;;2.90;99.90;;;;;;2604132;54;19934;31
2022/11/24 09:32:18;;;;;;;;;;;2.90;99.90;;;;;;2603699;54;19989;31
2022/11/24 09:34:51;;;;;;;;;;;3.00;99.90;;;;;;2702198;39;21605;31
2022/11/24 09:37:26;;;;;;;;;;;3.00;99.90;;;;;;2622308;46;19941;31
2022/11/24 09:40:05;;;;;;;;;;;3.00;99.90;;;;;;2604087;54;19935;31
2022/11/24 09:42:42;;;;;;;;;;;3.10;99.90;;;;;;2622458;46;19942;31
2022/11/24 09:45:27;;;;;;;;;;;3.10;99.90;;;;;;2603863;54;19942;31
2022/11/24 09:48:23;;;;;;;;;;;3.10;99.90;;;;;;2603795;54;19934;31
2022/11/24 09:50:56;;;;;;;;;;;3.10;99.90;;;;;;2622529;46;19941;31
2022/11/24 09:53:33;;;;;;;;;;;3.10;99.90;;;;;;2603712;54;20013;31
2022/11/24 09:56:12;;;;;;;;;;;3.20;99.90;;;;;;2603950;54;20741;31
2022/11/24 09:58:47;;;;;;;;;;;3.20;99.90;;;;;;2603742;54;20793;31
2022/11/24 10:01:25;;;;;;;;;;;3.20;99.90;;;;;;2603720;54;19969;31
2022/11/24 10:03:59;;;;;;;;;;;3.20;99.90;;;;;;2604041;54;19934;31
2022/11/24 10:06:40;;;;;;;;;;;3.30;99.90;;;;;;2622161;46;19942;31
2022/11/24 10:09:21;;;;;;;;;;;3.30;99.90;;;;;;2603832;54;20073;31
2022/11/24 10:11:58;;;;;;;;;;;3.30;99.90;;;;;;2603933;54;19941;31
2022/11/24 10:14:48;;;;;;;;;;;3.30;99.90;;;;;;2622014;46;19990;31
2022/11/24 10:17:28;;;;;;;;;;;3.30;99.90;;;;;;2702443;39;20358;31
2022/11/24 10:20:04;;;;;;;;;;;3.30;99.90;;;;;;2622273;46;19947;31
2022/11/24 10:22:43;;;;;;;;;;;3.30;99.90;;;;;;2603430;54;20575;31
2022/11/24 10:25:20;;;;;;;;;;;3.30;99.90;;;;;;2622217;46;19994;31
2022/11/24 10:27:58;;;;;;;;;;;3.30;99.90;;;;;;2622389;46;20744;31
2022/11/24 10:30:33;;;;;;;;;;;3.30;99.90;;;;;;2720610;39;20401;31
2022/11/24 10:33:14;;;;;;;;;;;3.30;99.90;;;;;;2622416;46;19942;31
2022/11/24 10:35:48;;;;;;;;;;;3.40;99.90;;;;;;2603820;54;19935;31
2022/11/24 10:38:27;;;;;;;;;;;3.40;99.90;;;;;;2603750;54;20779;31
2022/11/24 10:41:02;;;;;;;;;;;3.50;99.90;;;;;;2621756;46;20741;31
2022/11/24 10:43:48;;;;;;;;;;;3.50;99.90;;;;;;2621855;46;19942;31
2022/11/24 10:46:24;;;;;;;;;;;3.60;99.90;;;;;;2603375;54;20654;31
2022/11/24 10:49:02;;;;;;;;;;;3.60;99.90;;;;;;2621490;46;20726;31
2022/11/24 10:51:48;;;;;;;;;;;3.70;99.90;;;;;;2603702;54;19946;31
2022/11/24 10:54:21;;;;;;;;;;;3.80;99.90;;;;;;2622173;46;19934;31
2022/11/24 10:56:56;;;;;;;;;;;3.80;99.90;;;;;;2603522;54;19942;31
2022/11/24 10:59:40;;;;;;;;;;;3.90;99.90;;;;;;2720478;39;20417;31
2022/11/24 11:02:29;;;;;;;;;;;3.90;99.90;;;;;;2603600;54;20711;31
2022/11/24 11:07:37;;;;;;;;;;;3.90;99.90;;;;;;2603478;54;20025;31
2022/11/24 11:10:20;;;;;;;;;;;3.90;99.90;;;;;;2603397;54;19934;31
2022/11/24 11:15:29;;;;;;;;;;;4.00;99.90;;;;;;2621959;46;19941;31
2022/11/24 11:18:03;;;;;;;;;;;4.00;99.90;;;;;;2602482;54;19941;31
2022/11/24 11:20:37;;;;;;;;;;;4.00;99.90;;;;;;2701992;39;20370;31
2022/11/24 11:23:22;;;;;;;;;;;4.10;99.90;;;;;;2603388;54;20512;31
2022/11/24 11:26:12;;;;;;;;;;;4.10;99.90;;;;;;2603447;54;20792;31
2022/11/24 11:28:49;;;;;;;;;;;4.10;99.90;;;;;;2603455;54;20821;31
2022/11/24 11:31:22;;;;;;;;;;;4.10;99.90;;;;;;2603352;54;19956;31
2022/11/24 11:34:00;;;;;;;;;;;4.20;99.90;;;;;;2621914;46;20494;31
2022/11/24 11:36:41;;;;;;;;;;;4.20;99.90;;;;;;2603367;54;20834;31
2022/11/24 11:39:22;;;;;;;;;;;4.20;99.90;;;;;;2602824;54;20737;31
2022/11/24 11:42:03;;;;;;;;;;;4.30;99.90;;;;;;2603405;54;20018;31
2022/11/24 11:44:39;;;;;;;;;;;4.30;99.90;;;;;;2603249;54;20724;31
2022/11/24 11:47:16;;;;;;;;;;;4.30;99.90;;;;;;2603162;54;20580;31
2022/11/24 11:49:50;;;;;;;;;;;4.30;99.90;;;;;;2622053;46;20693;31
2022/11/24 11:52:36;;;;;;;;;;;4.40;99.90;;;;;;2603246;54;20742;31
2022/11/24 11:55:22;;;;;;;;;;;4.40;99.90;;;;;;2621659;46;19938;31
2022/11/24 11:57:59;;;;;;;;;;;4.40;99.90;;;;;;2603439;54;20804;31
2022/11/24 12:00:33;;;;;;;;;;;4.50;99.90;;;;;;2622047;47;20743;31
2022/11/24 12:03:20;;;;;;;;;;;4.50;99.90;;;;;;2603312;54;19938;31
2022/11/24 12:05:57;;;;;;;;;;;4.50;99.90;;;;;;2621715;47;19966;31
2022/11/24 12:08:34;;;;;;;;;;;4.50;99.90;;;;;;2621766;47;19985;31
2022/11/24 12:11:33;;;;;;;;;;;4.60;99.90;;;;;;2603272;54;20739;31
2022/11/24 12:14:11;;;;;;;;;;;4.60;99.90;;;;;;2603516;54;20466;31
2022/11/24 12:16:47;;;;;;;;;;;4.70;99.90;;;;;;2603302;54;19935;31
2022/11/24 12:19:28;;;;;;;;;;;4.70;99.90;;;;;;2603277;54;19935;31
2022/11/24 12:22:05;;;;;;;;;;;4.70;99.90;;;;;;2603266;54;20773;31
2022/11/24 12:24:41;;;;;;;;;;;4.70;99.90;;;;;;2603270;54;20888;31
2022/11/24 12:27:21;;;;;;;;;;;4.80;99.90;;;;;;2621303;47;20707;31
2022/11/24 12:30:01;;;;;;;;;;;4.80;99.90;;;;;;2602988;54;20728;31
2022/11/24 12:35:05;;;;;;;;;;;4.80;99.90;;;;;;2621827;47;20748;31
2022/11/24 12:37:42;;;;;;;;;;;4.80;99.90;;;;;;2621711;47;19945;31
2022/11/24 12:40:16;;;;;;;;;;;4.80;99.90;;;;;;2621502;47;20679;31
2022/11/24 12:42:56;;;;;;;;;;;4.80;99.90;;;;;;2602398;54;19935;31
2022/11/24 12:45:34;;;;;;;;;;;4.70;99.90;;;;;;2621905;47;20706;31
2022/11/24 12:48:22;;;;;;;;;;;4.70;99.90;;;;;;2602988;54;19942;31
2022/11/24 12:50:57;;;;;;;;;;;4.80;99.90;;;;;;2603053;54;20712;31
2022/11/24 12:53:32;;;;;;;;;;;4.70;99.90;;;;;;2621529;47;19998;31
2022/11/24 12:56:08;;;;;;;;;;;4.70;99.90;;;;;;2603109;54;20495;31
2022/11/24 12:58:49;;;;;;;;;;;4.70;99.90;;;;;;2602252;54;19964;31
2022/11/24 13:01:26;;;;;;;;;;;4.70;99.90;;;;;;2602941;54;20793;31
2022/11/24 13:04:04;;;;;;;;;;;4.70;99.90;;;;;;2621612;47;20741;31
2022/11/24 13:06:39;;;;;;;;;;;4.70;99.90;;;;;;2603569;54;20739;31
2022/11/24 13:09:23;;;;;;;;;;;4.80;99.90;;;;;;2702222;39;21470;31
2022/11/24 13:11:57;;;;;;;;;;;4.80;99.90;;;;;;2604069;54;20743;31
2022/11/24 13:14:39;;;;;;;;;;;4.80;99.90;;;;;;2603665;54;20803;31
2022/11/24 13:17:24;;;;;;;;;;;4.80;99.90;;;;;;2604035;54;19934;31
2022/11/24 13:20:17;;;;;;;;;;;4.80;99.90;;;;;;2604133;54;20738;31
2022/11/24 13:22:53;;;;;;;;;;;4.80;99.90;;;;;;2603786;54;20767;31
2022/11/24 13:25:29;;;;;;;;;;;4.80;99.90;;;;;;2603683;54;20754;31
2022/11/24 13:28:05;;;;;;;;;;;4.80;99.90;;;;;;2603799;54;19934;31
2022/11/24 13:30:52;;;;;;;;;;;4.80;99.90;;;;;;2603134;54;19943;31
2022/11/24 13:33:44;;;;;;;;;;;4.80;99.90;;;;;;2604030;54;19934;31
2022/11/24 13:36:31;;;;;;;;;;;4.80;99.90;;;;;;2603718;54;20778;31
2022/11/24 13:41:53;;;;;;;;;;;4.70;99.90;;;;;;2603754;54;19999;31
2022/11/24 13:44:31;;;;;;;;;;;4.70;99.90;;;;;;2603798;54;19935;31
2022/11/24 13:47:06;;;;;;;;;;;4.70;99.90;;;;;;2622416;46;19997;31
2022/11/24 13:49:41;;;;;;;;;;;4.70;99.90;;;;;;2603612;54;20821;31
2022/11/24 13:52:29;;;;;;;;;;;4.60;99.90;;;;;;2603721;54;20817;31
2022/11/24 13:55:04;;;;;;;;;;;4.60;99.90;;;;;;2603953;54;19961;31
2022/11/24 13:57:44;;;;;;;;;;;4.60;99.90;;;;;;2603724;54;19965;31
2022/11/24 14:00:23;;;;;;;;;;;4.60;99.90;;;;;;2622412;46;19935;31
2022/11/24 14:03:01;;;;;;;;;;;4.70;99.90;;;;;;2603783;54;20760;31
2022/11/24 14:05:35;;;;;;;;;;;4.60;99.90;;;;;;2603851;54;19961;31
2022/11/24 14:08:10;;;;;;;;;;;4.60;99.90;;;;;;2603564;54;20703;31
2022/11/24 14:10:44;;;;;;;;;;;4.60;99.90;;;;;;2603836;54;19941;31
2022/11/24 14:13:22;;;;;;;;;;;4.60;99.90;;;;;;2603700;54;20022;31
2022/11/24 14:16:06;;;;;;;;;;;4.60;99.90;;;;;;2603582;54;20762;31
2022/11/24 14:18:39;;;;;;;;;;;4.60;99.90;;;;;;2621803;47;20031;31
2022/11/24 14:21:26;;;;;;;;;;;4.60;99.90;;;;;;2603933;54;21200;31
2022/11/24 14:24:00;;;;;;;;;;;4.60;99.90;;;;;;2622152;46;19935;31
2022/11/24 14:26:35;;;;;;;;;;;4.60;99.90;;;;;;2603448;54;19961;31
2022/11/24 14:29:09;;;;;;;;;;;4.60;99.90;;;;;;2619921;46;20066;31
2022/11/24 14:31:45;;;;;;;;;;;4.60;99.90;;;;;;2622238;46;20749;31
2022/11/24 14:34:20;;;;;;;;;;;4.60;99.90;;;;;;2603240;54;19935;31
2022/11/24 14:36:54;;;;;;;;;;;4.60;99.90;;;;;;2603478;54;19939;31
2022/11/24 14:39:29;;;;;;;;;;;4.50;99.90;;;;;;2603376;54;19934;31
2022/11/24 14:42:06;;;;;;;;;;;4.90;99.90;;;;;;2603426;54;20791;31
2022/11/24 14:44:45;;;;;;;;;;;4.50;99.90;;;;;;2603697;54;20757;31
2022/11/24 14:47:23;;;;;;;;;;;4.50;99.90;;;;;;2603668;54;19994;31
2022/11/24 14:50:11;;;;;;;;;;;4.50;99.90;;;;;;2720275;39;20466;31
2022/11/24 14:52:47;;;;;;;;;;;4.50;99.90;;;;;;2621901;46;19935;31
2022/11/24 14:55:27;;;;;;;;;;;4.50;99.90;;;;;;2622113;46;19935;31
2022/11/24 14:58:01;;;;;;;;;;;4.40;99.90;;;;;;2720610;39;20386;31
2022/11/24 15:00:36;;;;;;;;;;;4.40;99.90;;;;;;2603501;54;19993;31
2022/11/24 15:03:15;;;;;;;;;;;4.60;99.90;;;;;;2621921;46;19958;31
2022/11/24 15:05:53;;;;;;;;;;;4.60;99.90;;;;;;2603489;54;19993;31
2022/11/24 15:08:26;;;;;;;;;;;4.60;99.90;;;;;;2622217;46;20775;31
2022/11/24 15:11:00;;;;;;;;;;;4.60;99.90;;;;;;2603512;54;19935;31
2022/11/24 15:13:35;;;;;;;;;;;4.60;99.90;;;;;;2622350;46;20812;31
2022/11/24 15:16:10;;;;;;;;;;;4.60;99.90;;;;;;2622090;46;19942;31
2022/11/24 15:18:46;;;;;;;;;;;4.60;99.90;;;;;;2603336;54;20745;31
2022/11/24 15:21:31;;;;;;;;;;;4.50;99.90;;;;;;2622025;46;19935;31
2022/11/24 15:24:08;;;;;;;;;;;4.50;99.90;;;;;;2621968;46;19935;31
2022/11/24 15:26:43;;;;;;;;;;;4.40;99.90;;;;;;2603293;54;20652;31
2022/11/24 15:29:16;;;;;;;;;;;4.40;99.90;;;;;;2603162;54;20014;31
2022/11/24 15:31:50;;;;;;;;;;;4.40;99.90;;;;;;2603481;54;19942;31
2022/11/24 15:34:29;;;;;;;;;;;4.30;99.90;;;;;;2603329;54;20769;31
2022/11/24 15:37:03;;;;;;;;;;;4.30;99.90;;;;;;2621426;46;19938;31
2022/11/24 15:39:37;;;;;;;;;;;4.30;99.90;;;;;;2622095;46;20868;31
2022/11/24 15:42:14;;;;;;;;;;;4.30;99.90;;;;;;2603510;54;20851;31
2022/11/24 15:44:48;;;;;;;;;;;4.30;99.90;;;;;;2603289;54;20730;31
2022/11/24 15:47:22;;;;;;;;;;;4.30;99.90;;;;;;2603399;54;19938;31
2022/11/24 15:49:59;;;;;;;;;;;4.30;99.90;;;;;;2621770;46;20785;31
2022/11/24 15:52:34;;;;;;;;;;;4.30;99.90;;;;;;2621794;46;20738;31
2022/11/24 15:55:08;;;;;;;;;;;4.30;99.90;;;;;;2603395;54;19960;31
2022/11/24 15:57:42;;;;;;;;;;;4.30;99.90;;;;;;2621995;47;19942;31